Hana, HI

6:13 PM HST on November 25, 2014 (GMT -1000)
Lahaina | Change Station
CLOSE
Current Station
Airport
Location: Lahaina,
Elevation: 256 ft
Nearby Weather Stations
Active Advisory: High Surf Advisory

Elev 256 ft 20.96 °N, 156.67 °W | Updated 23 minutes ago

Partly Cloudy
Partly Cloudy
72 °F
Feels Like 72 °F
N
14
Wind Variable Wind from NE

Today
High -- | Low -- °F
--% Chance of Precip.
Yesterday
High -- | Low -- °F
Precip. -- in
6:40 AM 5:42 PM
Waxing Crescent, 16% visible
Pressure 30.02 in
Visibility 15.0 miles
Clouds Few 3000 ft
Few 5000 ft
Dew Point 61 °F
Humidity 69%
Rainfall 0.00 in
Snow Depth Not available.
UV 0 out of 12
Pollen Not available.
Air Quality Not available.
Flu Activity Not available.
METAR PHJH 260350Z 04012KT 15SM FEW030 FEW050 22/16 A3002 RMK LAST

More Conditions Fewer Conditions

Pressure 30.02 in
Visibility 15.0 miles
Clouds Few 3000 ft
Few 5000 ft
Dew Point 61 °F
Humidity 69%
Rainfall 0.00 in
Snow Depth Not available.
UV 0 out of 12
Pollen Not available.
Air Quality Not available.
Flu Activity Not available.
METAR PHJH 260350Z 04012KT 15SM FEW030 FEW050 22/16 A3002 RMK LAST

More Conditions Fewer Conditions

10-Day Weather Forecast

Almanac

Astronomy

Nov. 25, 2014 Rise Set
Actual Time
Civil Twilight
Nautical Twilight
Astronomical Twilight
Moon
Length of Visible Light
Length of Day
Tomorrow will be .
, % of the Moon is Illuminated

Today's Extremes

State Highs State Lows

Community

WunderPhotos

Upload Photos

1,773,679 photos uploaded!

WunderBlogs® & News

Nearby

Air Quality

  Air Quality AQ Index Pollutant
Not available.

Snow Depth

Station Depth Elevation

Earthquake Activity

City Distance Mag. Time & Date
Minimum magnitude displayed is 2.5.

Coastal Water Temperatures

Place Temperature

Nearby Weather Stations